Time;durP1;ratioP1;P1;durP2;ratioP2;P2;SDS_P1;SDS_P2;PMS_P1;PMS_P2;Temp;Humidity;BMP_temperature;BMP_pressure;BME280_temperature;BME280_humidity;BME280_pressure;Samples;Min_cycle;Max_cycle;Signal;HPM_P1;HPM_P2
2021/06/18 00:01:10;;;;;;;51.20;36.05;;;20.60;99.90;;;;;;4976858;28;20042;-86
2021/06/18 00:03:37;;;;;;;43.50;34.72;;;20.50;99.90;;;;;;4977071;28;20373;-86
2021/06/18 00:06:04;;;;;;;42.83;35.63;;;20.50;99.90;;;;;;4976956;28;20043;-86
2021/06/18 00:08:31;;;;;;;41.83;35.25;;;20.40;99.90;;;;;;4976772;28;20042;-86
2021/06/18 00:10:58;;;;;;;45.95;36.85;;;20.40;99.90;;;;;;4977104;28;20054;-86
2021/06/18 00:13:24;;;;;;;45.53;37.53;;;20.30;99.90;;;;;;4962292;28;20117;-86
2021/06/18 00:15:51;;;;;;;47.13;38.88;;;20.30;99.90;;;;;;4994912;28;20472;-86
2021/06/18 00:18:18;;;;;;;45.72;38.30;;;20.30;99.90;;;;;;4976814;28;20035;-86
2021/06/18 00:20:45;;;;;;;50.33;39.50;;;20.30;99.90;;;;;;4978216;28;20050;-86
2021/06/18 00:23:12;;;;;;;49.42;39.33;;;20.30;99.90;;;;;;4976950;28;20538;-86
2021/06/18 00:25:40;;;;;;;46.70;40.33;;;20.10;99.90;;;;;;4977230;28;20047;-86
2021/06/18 00:28:06;;;;;;;45.25;37.67;;;20.10;99.90;;;;;;4992888;28;20039;-86
2021/06/18 00:30:34;;;;;;;49.92;40.10;;;20.10;99.90;;;;;;4975548;28;20049;-86
2021/06/18 00:33:00;;;;;;;47.10;40.13;;;20.00;99.90;;;;;;4996105;28;20486;-85
2021/06/18 00:35:27;;;;;;;46.03;38.97;;;20.00;99.90;;;;;;4992286;28;20042;-86
2021/06/18 00:37:54;;;;;;;47.72;38.78;;;20.00;99.90;;;;;;4994857;28;20035;-86
2021/06/18 00:40:21;;;;;;;52.38;41.83;;;19.90;99.90;;;;;;4976081;28;20101;-86
2021/06/18 00:42:48;;;;;;;41.83;36.83;;;19.90;99.90;;;;;;4975604;28;20034;-85
2021/06/18 00:45:14;;;;;;;47.55;38.97;;;19.90;99.90;;;;;;4986561;28;20047;-85
2021/06/18 00:47:48;;;;;;;45.30;37.83;;;19.80;99.90;;;;;;4977201;28;20043;-86
2021/06/18 00:50:18;;;;;;;45.15;37.80;;;19.80;99.90;;;;;;5008387;28;20483;-86
2021/06/18 00:52:45;;;;;;;45.33;36.95;;;19.70;99.90;;;;;;4993652;28;20046;-86
2021/06/18 00:55:12;;;;;;;45.47;37.05;;;19.70;99.90;;;;;;4992228;28;20047;-87
2021/06/18 00:58:00;;;;;;;45.85;38.60;;;19.70;99.90;;;;;;4971657;28;20053;-87
2021/06/18 01:00:27;;;;;;;42.60;35.80;;;19.60;99.90;;;;;;5028736;28;20038;-86
2021/06/18 01:02:54;;;;;;;42.30;34.70;;;19.60;99.90;;;;;;5010580;28;20411;-86
2021/06/18 01:05:22;;;;;;;49.92;38.78;;;19.60;99.90;;;;;;5007985;28;20479;-87
2021/06/18 01:08:01;;;;;;;45.42;35.92;;;19.60;99.90;;;;;;5010082;28;20062;-86
2021/06/18 01:10:56;;;;;;;44.42;37.22;;;19.60;99.90;;;;;;5007919;28;20038;-86
2021/06/18 01:13:27;;;;;;;41.45;33.63;;;19.50;99.90;;;;;;5009464;28;20039;-87
2021/06/18 01:17:04;;;;;;;38.50;32.70;;;19.50;99.90;;;;;;5011612;28;20050;-86
2021/06/18 01:19:40;;;;;;;39.25;31.60;;;19.40;99.90;;;;;;4928651;29;20063;-87
2021/06/18 01:22:13;;;;;;;40.00;33.70;;;19.40;99.90;;;;;;4933706;29;20424;-87
2021/06/18 01:25:12;;;;;;;41.13;33.83;;;19.60;99.90;;;;;;4996753;28;20406;-87
2021/06/18 01:28:01;;;;;;;38.40;33.28;;;19.50;99.90;;;;;;5010981;28;20039;-87
2021/06/18 01:30:30;;;;;;;39.13;32.08;;;19.60;99.90;;;;;;5011133;28;20038;-87
2021/06/18 01:33:03;;;;;;;38.78;32.83;;;19.50;99.90;;;;;;4995219;28;20046;-87
2021/06/18 01:35:36;;;;;;;36.10;31.13;;;19.50;99.90;;;;;;5011124;28;20038;-87
2021/06/18 01:38:05;;;;;;;38.35;29.92;;;19.40;99.90;;;;;;5011275;28;20045;-86
2021/06/18 01:40:34;;;;;;;39.50;32.25;;;19.40;99.90;;;;;;5010693;28;20486;-87
2021/06/18 01:43:04;;;;;;;37.92;32.10;;;19.30;99.90;;;;;;4995374;28;20050;-87
2021/06/18 01:45:32;;;;;;;42.83;33.65;;;19.40;99.90;;;;;;5028204;28;20093;-87
2021/06/18 01:48:02;;;;;;;39.30;31.95;;;19.40;99.90;;;;;;5028399;28;20030;-87
2021/06/18 01:50:30;;;;;;;36.72;32.72;;;19.30;99.90;;;;;;5010712;28;20049;-87
2021/06/18 01:53:09;;;;;;;37.88;32.97;;;19.30;99.90;;;;;;4994876;28;20046;-87
2021/06/18 01:55:38;;;;;;;36.88;32.03;;;19.40;99.90;;;;;;5027941;28;20048;-87
2021/06/18 01:58:06;;;;;;;38.08;32.92;;;19.30;99.90;;;;;;5011076;28;20466;-87
2021/06/18 02:00:39;;;;;;;41.58;32.78;;;19.30;99.90;;;;;;5027885;28;20042;-86
2021/06/18 02:03:13;;;;;;;44.13;33.83;;;19.30;99.90;;;;;;5011136;28;20042;-87
2021/06/18 02:05:42;;;;;;;38.72;31.90;;;19.20;99.90;;;;;;5010792;28;20466;-87
2021/06/18 02:08:12;;;;;;;38.10;31.95;;;19.30;99.90;;;;;;5011143;28;20034;-87
2021/06/18 02:10:42;;;;;;;38.80;31.92;;;19.20;99.90;;;;;;5010561;28;20084;-86
2021/06/18 02:13:12;;;;;;;40.05;32.47;;;19.20;99.90;;;;;;5010803;28;20042;-87
2021/06/18 02:15:41;;;;;;;41.10;31.65;;;19.20;99.90;;;;;;5027544;28;20054;-87
2021/06/18 02:18:15;;;;;;;40.35;33.20;;;19.20;99.90;;;;;;5010784;28;20045;-86
2021/06/18 02:20:44;;;;;;;37.53;32.67;;;19.30;99.90;;;;;;5010561;28;20608;-87
2021/06/18 02:23:11;;;;;;;39.55;31.58;;;19.30;99.90;;;;;;5011528;28;20501;-87
2021/06/18 02:25:39;;;;;;;40.13;33.10;;;19.40;99.90;;;;;;4978833;28;20399;-87
2021/06/18 02:28:08;;;;;;;43.50;32.72;;;19.40;99.90;;;;;;5010887;28;20066;-86
2021/06/18 02:30:35;;;;;;;40.17;32.65;;;19.40;99.90;;;;;;5010664;28;20434;-87
2021/06/18 02:33:10;;;;;;;39.55;32.75;;;19.40;99.90;;;;;;4978659;28;20039;-87
2021/06/18 02:35:38;;;;;;;42.70;33.38;;;19.30;99.90;;;;;;4980309;28;20089;-87
2021/06/18 02:38:06;;;;;;;42.03;33.15;;;19.40;99.90;;;;;;4994987;28;20055;-86
2021/06/18 02:40:33;;;;;;;42.55;35.42;;;19.40;99.90;;;;;;5010571;28;20386;-86
2021/06/18 02:43:00;;;;;;;42.03;35.22;;;19.30;99.90;;;;;;4994893;28;20046;-87
2021/06/18 02:45:26;;;;;;;40.88;33.78;;;19.30;99.90;;;;;;4994255;28;20043;-87
2021/06/18 02:48:03;;;;;;;41.78;34.40;;;19.30;99.90;;;;;;4978579;28;20034;-87
2021/06/18 02:51:07;;;;;;;42.70;36.42;;;19.30;99.90;;;;;;5009984;28;20046;-87
2021/06/18 02:53:59;;;;;;;41.53;33.65;;;19.20;99.90;;;;;;4998961;28;20053;-87
2021/06/18 02:56:31;;;;;;;40.83;35.97;;;19.20;99.90;;;;;;5013618;28;20489;-87
2021/06/18 02:59:21;;;;;;;44.85;36.10;;;19.20;99.90;;;;;;5014110;28;20038;-87
2021/06/18 03:01:51;;;;;;;43.33;37.15;;;19.10;99.90;;;;;;5013806;28;20116;-87
2021/06/18 03:04:22;;;;;;;44.25;36.80;;;19.10;99.90;;;;;;5014271;28;20222;-87
2021/06/18 03:06:58;;;;;;;46.88;39.13;;;19.10;99.90;;;;;;5030742;28;20088;-87
2021/06/18 03:09:38;;;;;;;51.45;41.15;;;19.10;99.90;;;;;;5013760;28;20038;-87
2021/06/18 03:12:10;;;;;;;42.80;37.70;;;19.10;99.90;;;;;;5014376;28;20407;-87
2021/06/18 03:14:37;;;;;;;45.00;37.92;;;19.10;99.90;;;;;;5013678;28;20058;-87
2021/06/18 03:17:09;;;;;;;43.95;36.20;;;19.10;99.90;;;;;;5010957;28;20035;-87
2021/06/18 03:19:48;;;;;;;42.78;35.03;;;19.10;99.90;;;;;;4994587;28;20039;-87
2021/06/18 03:22:16;;;;;;;42.03;35.63;;;19.20;99.90;;;;;;5014062;28;20451;-87
2021/06/18 03:24:45;;;;;;;42.25;34.28;;;19.20;99.90;;;;;;5013589;28;20046;-87
2021/06/18 03:27:14;;;;;;;43.03;34.55;;;19.10;99.90;;;;;;4994382;28;20395;-87
2021/06/18 03:29:41;;;;;;;41.25;33.35;;;19.10;99.90;;;;;;4978754;28;20372;-87
2021/06/18 03:32:10;;;;;;;40.67;32.63;;;19.10;99.90;;;;;;5010276;28;20038;-87
2021/06/18 03:34:37;;;;;;;42.30;33.60;;;19.10;99.90;;;;;;4994109;28;20167;-87
2021/06/18 03:37:06;;;;;;;42.17;33.45;;;19.20;99.90;;;;;;5013584;28;20034;-87
2021/06/18 03:39:33;;;;;;;40.40;33.53;;;19.20;99.90;;;;;;4997075;28;20097;-87
2021/06/18 03:42:01;;;;;;;42.13;34.58;;;19.20;99.90;;;;;;4981509;28;20058;-86
2021/06/18 03:44:28;;;;;;;45.00;33.47;;;19.20;99.90;;;;;;4994455;28;20122;-87
2021/06/18 03:46:56;;;;;;;42.67;33.92;;;19.30;99.90;;;;;;4980325;28;20475;-87
2021/06/18 03:49:25;;;;;;;36.95;32.42;;;19.20;99.90;;;;;;4994053;28;20085;-86
2021/06/18 03:51:54;;;;;;;45.17;34.72;;;19.20;99.90;;;;;;4995829;28;20054;-87
2021/06/18 03:54:22;;;;;;;46.28;35.95;;;19.20;99.90;;;;;;4993942;28;20046;-87
2021/06/18 03:56:50;;;;;;;40.25;33.00;;;19.30;99.90;;;;;;4995361;28;20042;-87
2021/06/18 03:59:17;;;;;;;38.42;33.08;;;19.20;99.90;;;;;;4993923;28;20045;-87
2021/06/18 04:01:47;;;;;;;38.65;31.35;;;19.30;99.90;;;;;;4995172;28;20031;-87
2021/06/18 04:04:14;;;;;;;35.22;31.17;;;19.30;99.90;;;;;;4994697;28;20046;-87
2021/06/18 04:06:41;;;;;;;38.33;30.10;;;19.40;99.90;;;;;;4978593;28;20056;-89
2021/06/18 04:09:08;;;;;;;35.78;29.58;;;19.40;99.90;;;;;;4978166;28;20043;-88
2021/06/18 04:11:35;;;;;;;36.80;28.92;;;19.40;99.90;;;;;;5009304;28;20400;-87
2021/06/18 04:14:03;;;;;;;33.88;28.38;;;19.40;99.90;;;;;;4997054;28;20041;-88
2021/06/18 04:16:30;;;;;;;33.38;28.95;;;19.40;99.90;;;;;;4993493;28;20051;-88
2021/06/18 04:18:57;;;;;;;33.30;27.75;;;19.50;99.90;;;;;;4996325;28;20052;-88
2021/06/18 04:21:26;;;;;;;31.63;27.58;;;19.40;99.90;;;;;;4997180;28;20475;-88
2021/06/18 04:23:53;;;;;;;34.67;27.15;;;19.50;99.90;;;;;;5012986;28;20039;-88
2021/06/18 04:26:20;;;;;;;33.75;27.48;;;19.50;99.90;;;;;;4981140;28;20069;-88
2021/06/18 04:28:48;;;;;;;32.88;28.10;;;19.50;99.90;;;;;;4980545;28;20044;-87
2021/06/18 04:31:15;;;;;;;35.83;28.95;;;19.50;99.90;;;;;;4996860;28;20116;-87
2021/06/18 04:33:42;;;;;;;30.98;27.33;;;19.50;99.90;;;;;;4980380;28;20042;-87
2021/06/18 04:36:09;;;;;;;29.77;26.58;;;19.50;99.90;;;;;;5030146;28;20049;-87
2021/06/18 04:38:39;;;;;;;33.50;28.48;;;19.50;99.90;;;;;;4980671;28;20042;-87
2021/06/18 04:41:06;;;;;;;32.60;27.83;;;19.60;99.90;;;;;;4980703;28;20590;-88
2021/06/18 04:43:33;;;;;;;34.97;27.38;;;19.60;99.90;;;;;;4980947;28;20088;-88
2021/06/18 04:46:00;;;;;;;31.58;27.42;;;19.70;99.90;;;;;;4980490;28;20034;-89
2021/06/18 04:48:28;;;;;;;30.50;27.20;;;19.70;99.90;;;;;;4980829;28;20473;-87
2021/06/18 04:50:56;;;;;;;35.20;27.38;;;19.80;99.90;;;;;;4996039;28;20034;-89
2021/06/18 04:53:22;;;;;;;33.88;25.48;;;19.80;99.90;;;;;;5012411;28;20073;-88
2021/06/18 04:55:49;;;;;;;33.67;26.55;;;19.90;99.90;;;;;;5012238;28;20058;-88
2021/06/18 04:58:16;;;;;;;34.08;27.48;;;19.90;99.90;;;;;;4980669;28;20041;-88
2021/06/18 05:00:43;;;;;;;31.60;24.95;;;19.90;99.90;;;;;;4996124;28;20034;-88
2021/06/18 05:03:10;;;;;;;32.20;24.85;;;20.00;99.90;;;;;;4996875;28;20034;-94
2021/06/18 05:05:37;;;;;;;30.05;25.48;;;20.10;99.90;;;;;;4996629;28;20068;-89
2021/06/18 05:08:04;;;;;;;32.70;25.48;;;20.10;99.90;;;;;;4980095;28;20093;-90
2021/06/18 05:10:31;;;;;;;33.28;26.17;;;20.20;99.90;;;;;;4996466;28;20045;-88
2021/06/18 05:12:58;;;;;;;32.63;24.67;;;20.20;99.90;;;;;;4980237;28;20050;-88
2021/06/18 05:15:25;;;;;;;30.98;26.20;;;20.20;99.90;;;;;;4988190;28;20051;-88
2021/06/18 05:17:51;;;;;;;30.88;26.33;;;20.10;99.90;;;;;;4976447;28;20062;-88
2021/06/18 05:20:19;;;;;;;34.42;25.85;;;20.10;99.90;;;;;;4977241;28;20039;-89
2021/06/18 05:22:46;;;;;;;33.20;26.00;;;20.20;99.90;;;;;;4992515;28;20049;-89
2021/06/18 05:25:13;;;;;;;30.10;25.88;;;20.20;99.90;;;;;;4993642;28;20035;-90
2021/06/18 05:27:40;;;;;;;31.13;26.63;;;20.20;99.90;;;;;;4976845;28;20039;-88
2021/06/18 05:30:11;;;;;;;35.47;28.25;;;20.10;99.90;;;;;;4992268;28;20039;-88
2021/06/18 05:32:38;;;;;;;32.83;26.98;;;20.20;99.90;;;;;;4992554;28;20049;-89
2021/06/18 05:35:06;;;;;;;34.47;27.98;;;20.20;99.90;;;;;;4960745;28;20042;-88
2021/06/18 05:37:32;;;;;;;38.67;28.95;;;20.30;99.90;;;;;;4976949;28;20041;-89
2021/06/18 05:39:59;;;;;;;34.85;28.20;;;20.40;99.90;;;;;;4976623;28;20038;-88
2021/06/18 05:42:26;;;;;;;33.15;27.83;;;20.60;99.90;;;;;;4976742;28;20046;-87
2021/06/18 05:44:53;;;;;;;30.15;26.85;;;20.70;99.90;;;;;;4960435;28;20537;-87
2021/06/18 05:47:20;;;;;;;34.63;28.65;;;20.70;99.90;;;;;;4993067;28;20121;-88
2021/06/18 05:49:47;;;;;;;36.97;29.23;;;20.70;99.90;;;;;;4977014;28;20057;-88
2021/06/18 05:52:14;;;;;;;30.35;27.02;;;20.70;99.90;;;;;;4960960;28;20046;-90
2021/06/18 05:54:40;;;;;;;32.72;27.35;;;20.70;99.90;;;;;;4993069;28;20470;-89
2021/06/18 05:57:07;;;;;;;31.00;26.35;;;20.60;99.90;;;;;;4976451;28;20042;-88
2021/06/18 05:59:34;;;;;;;32.13;26.40;;;20.60;99.90;;;;;;4950381;29;20032;-89
2021/06/18 06:02:01;;;;;;;34.13;26.52;;;20.60;99.90;;;;;;4939981;29;20031;-89
2021/06/18 06:04:28;;;;;;;29.15;25.38;;;20.70;99.90;;;;;;4966043;28;20053;-89
2021/06/18 06:06:55;;;;;;;30.55;26.77;;;20.70;99.90;;;;;;4975704;28;20484;-88
2021/06/18 06:09:22;;;;;;;32.35;26.15;;;20.70;99.90;;;;;;4960158;28;20043;-90
2021/06/18 06:11:49;;;;;;;32.33;27.90;;;20.80;99.90;;;;;;4966952;29;20477;-90
2021/06/18 06:14:17;;;;;;;31.85;25.77;;;20.90;99.90;;;;;;4938251;29;20040;-89
2021/06/18 06:16:48;;;;;;;31.27;27.88;;;21.00;99.90;;;;;;4922722;29;20082;-90
2021/06/18 06:19:15;;;;;;;37.97;27.98;;;20.90;99.90;;;;;;4938330;29;20079;-91
2021/06/18 06:21:43;;;;;;;31.77;27.30;;;20.90;99.90;;;;;;4952657;29;20456;-84
2021/06/18 06:24:12;;;;;;;26.77;23.52;;;20.90;99.90;;;;;;4970114;28;20038;-87
2021/06/18 06:26:40;;;;;;;23.23;20.83;;;20.90;99.90;;;;;;4991336;28;20093;-85
2021/06/18 06:29:07;;;;;;;23.73;20.70;;;21.00;99.90;;;;;;4977351;28;20042;-85
2021/06/18 06:31:34;;;;;;;22.77;20.48;;;21.00;99.90;;;;;;4979027;28;20193;-84
2021/06/18 06:34:01;;;;;;;21.73;19.42;;;21.10;99.90;;;;;;4960975;29;20114;-84
2021/06/18 06:36:28;;;;;;;19.13;17.13;;;21.20;99.90;;;;;;4986017;28;20441;-84
2021/06/18 06:38:55;;;;;;;21.75;17.92;;;21.30;99.90;;;;;;4967975;28;20043;-80
2021/06/18 06:41:22;;;;;;;22.80;18.80;;;21.40;99.90;;;;;;4963218;28;20102;-82
2021/06/18 06:43:49;;;;;;;19.50;17.40;;;21.60;99.90;;;;;;4978838;28;20035;-81
2021/06/18 06:46:19;;;;;;;22.70;19.05;;;21.60;99.90;;;;;;4978293;28;20038;-82
2021/06/18 06:48:46;;;;;;;20.50;18.38;;;21.50;99.90;;;;;;4987253;29;20039;-81
2021/06/18 06:51:13;;;;;;;20.67;18.10;;;21.40;99.90;;;;;;4961821;28;20388;-81
2021/06/18 06:53:40;;;;;;;23.80;19.73;;;21.30;99.90;;;;;;4970492;29;20123;-83
2021/06/18 06:56:07;;;;;;;21.02;18.67;;;21.30;99.90;;;;;;4908958;29;20115;-82
2021/06/18 06:58:34;;;;;;;22.45;19.48;;;21.30;99.90;;;;;;4924678;29;20036;-81
2021/06/18 07:01:00;;;;;;;22.17;19.25;;;21.30;99.90;;;;;;4924154;29;20040;-84
2021/06/18 07:03:28;;;;;;;20.80;18.70;;;21.40;99.90;;;;;;4940386;29;20369;-83
2021/06/18 07:05:54;;;;;;;20.15;18.20;;;21.50;99.90;;;;;;4930975;28;20038;-79
2021/06/18 07:08:24;;;;;;;21.63;19.30;;;21.60;99.90;;;;;;4956433;29;20047;-80
2021/06/18 07:10:53;;;;;;;23.63;21.13;;;21.50;99.90;;;;;;4991787;28;20536;-81
2021/06/18 07:13:21;;;;;;;25.40;22.70;;;21.50;99.90;;;;;;4978249;28;20043;-81
2021/06/18 07:15:50;;;;;;;23.88;21.27;;;21.40;99.90;;;;;;4992398;28;20047;-81
2021/06/18 07:18:17;;;;;;;23.48;20.98;;;21.40;99.90;;;;;;4989165;28;20505;-80
2021/06/18 07:20:45;;;;;;;24.92;22.40;;;21.40;99.90;;;;;;4983426;28;20034;-81
2021/06/18 07:23:12;;;;;;;21.48;16.35;;;21.50;99.90;;;;;;4993772;28;20053;-83
2021/06/18 07:25:39;;;;;;;17.42;15.38;;;21.50;99.90;;;;;;4978248;28;20121;-83
2021/06/18 07:28:07;;;;;;;17.70;15.02;;;21.50;99.90;;;;;;4987653;28;20042;-83
2021/06/18 07:30:35;;;;;;;18.50;14.98;;;21.50;99.90;;;;;;4964925;29;20515;-83
2021/06/18 07:33:03;;;;;;;16.33;14.63;;;21.50;99.90;;;;;;4994486;28;20047;-83
2021/06/18 07:35:30;;;;;;;17.13;15.32;;;21.50;99.90;;;;;;5002123;28;20039;-82
2021/06/18 07:38:00;;;;;;;17.05;14.75;;;21.40;99.90;;;;;;4955263;29;20066;-81
2021/06/18 07:40:27;;;;;;;16.63;14.75;;;21.40;99.90;;;;;;4924584;29;20046;-82
2021/06/18 07:42:54;;;;;;;17.65;15.13;;;21.40;99.90;;;;;;4924762;29;20040;-85
2021/06/18 07:45:21;;;;;;;16.33;14.27;;;21.60;99.90;;;;;;4962453;29;20071;-81
2021/06/18 07:47:48;;;;;;;15.07;13.48;;;21.70;99.90;;;;;;4956917;29;20046;-82
2021/06/18 07:50:16;;;;;;;15.20;13.35;;;21.80;99.90;;;;;;4954706;29;20118;-83
2021/06/18 07:52:43;;;;;;;14.40;12.90;;;21.80;99.90;;;;;;4954976;29;20095;-81
2021/06/18 07:55:16;;;;;;;15.02;13.52;;;22.00;99.90;;;;;;4938884;29;20480;-82
2021/06/18 07:57:43;;;;;;;15.45;13.40;;;22.10;99.90;;;;;;4941881;29;20032;-84
2021/06/18 08:00:11;;;;;;;15.00;13.40;;;22.20;99.90;;;;;;4962985;28;20402;-82
2021/06/18 08:02:38;;;;;;;15.05;13.50;;;22.30;99.90;;;;;;4967242;29;20193;-87
2021/06/18 08:05:05;;;;;;;15.18;12.90;;;22.40;99.90;;;;;;4956349;28;20074;-83
2021/06/18 08:07:32;;;;;;;14.05;12.55;;;22.50;99.90;;;;;;4978069;28;20046;-83
2021/06/18 08:10:00;;;;;;;14.77;12.82;;;22.60;99.90;;;;;;4947520;29;20047;-83
2021/06/18 08:12:27;;;;;;;12.75;11.55;;;22.70;99.90;;;;;;4938977;29;20047;-83
2021/06/18 08:14:54;;;;;;;14.88;13.38;;;22.80;99.90;;;;;;4954767;29;20050;-84
2021/06/18 08:17:20;;;;;;;15.23;13.73;;;22.90;99.90;;;;;;4982662;28;20490;-87
2021/06/18 08:19:47;;;;;;;14.85;13.30;;;22.90;99.90;;;;;;4976804;28;20049;-88
2021/06/18 08:22:14;;;;;;;14.05;12.57;;;23.00;99.90;;;;;;4996595;28;20088;-83
2021/06/18 08:24:41;;;;;;;14.65;13.13;;;23.00;99.90;;;;;;4978212;28;20416;-87
2021/06/18 08:27:08;;;;;;;12.75;11.43;;;23.10;99.90;;;;;;4993227;28;20046;-83
2021/06/18 08:29:36;;;;;;;13.02;11.15;;;23.10;99.90;;;;;;4961887;28;20035;-85
2021/06/18 08:32:03;;;;;;;12.20;10.85;;;23.20;99.90;;;;;;5005969;28;20471;-84
2021/06/18 08:34:31;;;;;;;12.25;10.75;;;23.20;99.90;;;;;;4993692;28;20502;-86
2021/06/18 08:36:58;;;;;;;11.75;10.55;;;23.30;99.90;;;;;;4977135;28;20039;-86
2021/06/18 08:39:24;;;;;;;12.68;10.95;;;23.30;99.90;;;;;;4960337;28;20093;-86
2021/06/18 08:41:51;;;;;;;12.70;11.40;;;23.50;99.90;;;;;;4977080;28;20045;-86
2021/06/18 08:44:19;;;;;;;12.57;11.38;;;23.50;99.90;;;;;;5008896;28;20493;-88
2021/06/18 08:46:47;;;;;;;14.57;11.60;;;23.50;99.90;;;;;;4992721;28;20034;-85
2021/06/18 08:49:14;;;;;;;12.43;10.55;;;23.60;99.90;;;;;;4976421;28;20476;-85
2021/06/18 08:51:41;;;;;;;14.43;11.50;;;23.70;99.90;;;;;;5009407;28;20043;-86
2021/06/18 08:54:07;;;;;;;12.27;10.80;;;23.70;99.90;;;;;;4945096;28;20050;-83
2021/06/18 08:56:34;;;;;;;17.50;11.70;;;23.80;99.90;;;;;;4976349;28;20047;-86
2021/06/18 08:59:01;;;;;;;11.85;10.52;;;24.00;99.90;;;;;;4987667;28;20038;-87
2021/06/18 09:01:28;;;;;;;10.40;9.38;;;24.10;99.90;;;;;;4977958;29;20451;-86
2021/06/18 09:04:00;;;;;;;11.85;10.65;;;24.20;99.90;;;;;;4964239;29;20503;-86
2021/06/18 09:06:28;;;;;;;11.23;9.68;;;24.30;99.90;;;;;;4957025;29;20058;-86
2021/06/18 09:09:16;;;;;;;10.98;9.63;;;24.40;99.90;;;;;;4972790;29;20039;-86
2021/06/18 09:11:59;;;;;;;12.25;10.43;;;24.50;99.90;;;;;;4983172;28;20034;-89
2021/06/18 09:14:38;;;;;;;10.77;9.68;;;24.50;99.90;;;;;;5011695;28;20054;-88
2021/06/18 09:17:06;;;;;;;9.65;8.65;;;24.70;99.90;;;;;;4996057;28;20046;-89
2021/06/18 09:19:36;;;;;;;13.20;10.20;;;25.00;99.90;;;;;;5012445;28;20085;-90
2021/06/18 09:22:07;;;;;;;12.85;10.18;;;25.20;99.90;;;;;;4996989;28;20121;-93
2021/06/18 09:24:37;;;;;;;10.75;9.13;;;25.30;99.90;;;;;;5012091;28;20042;-89
2021/06/18 09:27:05;;;;;;;11.00;9.15;;;25.30;99.90;;;;;;5012451;28;20034;-89
2021/06/18 09:29:33;;;;;;;12.30;10.10;;;25.40;99.90;;;;;;5029306;28;20503;-92
2021/06/18 09:32:03;;;;;;;10.13;9.05;;;25.50;99.90;;;;;;4980351;28;20049;-90
2021/06/18 09:37:30;;;;;;;8.60;7.80;;;26.10;99.90;;;;;;5029348;28;20072;-89
2021/06/18 09:40:12;;;;;;;11.07;8.10;;;26.30;99.90;;;;;;4995111;28;20054;-90
2021/06/18 09:42:48;;;;;;;9.63;6.90;;;26.30;99.90;;;;;;5030015;28;20034;-90
2021/06/18 09:45:21;;;;;;;7.85;7.03;;;26.20;99.90;;;;;;5011419;28;20076;-90
2021/06/18 09:47:49;;;;;;;8.65;6.97;;;26.10;99.90;;;;;;5012065;28;20039;-91
2021/06/18 09:50:26;;;;;;;9.00;7.28;;;26.20;99.90;;;;;;5012235;28;20030;-93
2021/06/18 09:53:11;;;;;;;9.75;6.75;;;26.00;99.90;;;;;;5013078;28;20038;-91
2021/06/18 09:55:39;;;;;;;9.18;6.45;;;26.00;99.90;;;;;;4996564;28;20050;-92
2021/06/18 09:58:06;;;;;;;6.70;5.68;;;26.10;99.90;;;;;;4995970;28;20467;-91
2021/06/18 10:00:33;;;;;;;8.50;5.60;;;26.20;99.90;;;;;;5011116;28;20483;-90
2021/06/18 10:03:00;;;;;;;6.95;5.93;;;26.30;99.90;;;;;;4979609;28;20137;-90
2021/06/18 10:05:32;;;;;;;6.88;4.95;;;26.40;99.90;;;;;;4979582;28;20050;-92
2021/06/18 10:07:59;;;;;;;7.82;5.25;;;26.40;99.90;;;;;;5011783;28;20034;-89
2021/06/18 10:10:30;;;;;;;7.35;5.85;;;26.50;99.90;;;;;;4981084;28;20030;-88
2021/06/18 10:12:58;;;;;;;7.05;5.35;;;26.60;99.90;;;;;;4979193;28;20083;-90
2021/06/18 10:15:27;;;;;;;9.02;5.85;;;26.70;99.90;;;;;;4992744;28;20043;-91
2021/06/18 10:17:56;;;;;;;9.77;5.60;;;26.80;99.90;;;;;;4975641;28;20138;-85
2021/06/18 10:20:26;;;;;;;6.32;5.10;;;26.90;99.90;;;;;;4974903;28;20039;-84
2021/06/18 10:23:07;;;;;;;5.88;4.80;;;27.00;99.90;;;;;;4998830;28;20035;-85
2021/06/18 10:25:49;;;;;;;7.90;5.57;;;27.10;99.90;;;;;;5027613;28;20038;-82
2021/06/18 10:28:32;;;;;;;9.45;6.28;;;27.20;99.90;;;;;;5010165;28;20038;-83
2021/06/18 10:31:01;;;;;;;7.10;6.40;;;27.30;99.90;;;;;;5010856;28;20049;-84
2021/06/18 10:33:28;;;;;;;9.30;6.03;;;27.40;99.90;;;;;;4994027;28;20038;-79
2021/06/18 10:36:11;;;;;;;7.25;4.93;;;27.60;99.90;;;;;;5010427;28;20050;-76
2021/06/18 10:38:47;;;;;;;8.68;6.32;;;27.80;99.90;;;;;;5024443;28;20081;-76
2021/06/18 10:41:36;;;;;;;7.53;5.85;;;27.80;99.90;;;;;;5004420;28;20034;-81
2021/06/18 10:44:03;;;;;;;9.23;6.05;;;27.80;99.90;;;;;;5010018;28;20101;-72
2021/06/18 10:46:48;;;;;;;7.22;5.47;;;27.70;99.90;;;;;;5007860;28;20035;-82
2021/06/18 10:49:15;;;;;;;7.63;5.30;;;27.80;99.90;;;;;;5019214;28;20034;-81
2021/06/18 10:51:44;;;;;;;8.77;5.78;;;27.70;99.90;;;;;;5004825;28;20521;-81
2021/06/18 10:54:29;;;;;;;7.10;5.75;;;27.50;99.90;;;;;;5009940;28;20034;-82
2021/06/18 10:56:58;;;;;;;8.15;5.88;;;27.30;99.90;;;;;;4996132;28;20034;-93
2021/06/18 10:59:34;;;;;;;7.05;5.50;;;27.20;99.90;;;;;;5010884;28;20046;-91
2021/06/18 11:02:26;;;;;;;6.40;5.80;;;27.30;99.90;;;;;;5011106;28;20467;-89
2021/06/18 11:04:58;;;;;;;7.15;5.20;;;27.40;99.90;;;;;;5027666;28;20487;-89
2021/06/18 11:07:25;;;;;;;5.57;4.60;;;27.50;99.90;;;;;;5010225;28;20035;-92
2021/06/18 11:09:55;;;;;;;5.70;4.43;;;27.40;99.90;;;;;;5011076;28;20045;-86
2021/06/18 11:12:26;;;;;;;6.43;4.60;;;27.40;99.90;;;;;;5009980;28;20045;-84
2021/06/18 11:15:06;;;;;;;8.20;4.75;;;27.30;99.90;;;;;;4990576;28;20043;-70
2021/06/18 11:17:48;;;;;;;7.38;5.55;;;27.30;99.90;;;;;;5016240;28;20475;-69
2021/06/18 11:20:23;;;;;;;7.25;5.47;;;27.40;99.90;;;;;;5000389;28;20472;-70
2021/06/18 11:23:13;;;;;;;10.27;5.85;;;27.40;99.90;;;;;;5019532;28;20038;-70
2021/06/18 11:25:40;;;;;;;5.63;4.80;;;27.40;99.90;;;;;;5018260;28;20035;-71
2021/06/18 11:28:23;;;;;;;9.45;6.43;;;27.50;99.90;;;;;;5016465;28;20043;-71
2021/06/18 11:31:00;;;;;;;9.00;6.90;;;27.40;99.90;;;;;;5023759;28;20042;-71
2021/06/18 11:33:39;;;;;;;8.68;6.70;;;27.40;99.90;;;;;;5003425;28;20052;-70
2021/06/18 11:36:13;;;;;;;7.80;6.53;;;27.40;99.90;;;;;;5020013;28;20030;-70
2021/06/18 11:38:40;;;;;;;8.30;6.00;;;27.30;99.90;;;;;;5016845;28;20050;-70
2021/06/18 11:41:10;;;;;;;8.15;7.18;;;27.10;99.90;;;;;;5010429;28;20046;-71
2021/06/18 11:43:38;;;;;;;9.50;6.60;;;27.00;99.90;;;;;;4993646;28;20097;-70
2021/06/18 11:46:06;;;;;;;6.82;6.13;;;27.00;99.90;;;;;;5005274;28;20054;-70
2021/06/18 11:48:34;;;;;;;9.10;7.22;;;26.90;99.90;;;;;;5007032;28;20061;-71
2021/06/18 11:51:01;;;;;;;9.93;7.03;;;26.90;99.90;;;;;;5029896;28;20069;-71
2021/06/18 11:53:44;;;;;;;10.55;8.10;;;26.90;99.90;;;;;;5013095;28;20562;-84
2021/06/18 11:56:11;;;;;;;9.63;7.72;;;26.80;99.90;;;;;;4997486;28;20042;-84
2021/06/18 11:58:42;;;;;;;11.00;8.50;;;26.80;99.90;;;;;;5012608;28;20041;-83
2021/06/18 12:01:19;;;;;;;8.48;7.57;;;26.80;99.90;;;;;;5030448;28;20041;-82
2021/06/18 12:04:08;;;;;;;11.02;8.48;;;26.80;99.90;;;;;;5012829;28;20034;-87
2021/06/18 12:06:36;;;;;;;9.98;8.98;;;26.70;99.90;;;;;;5013000;28;20074;-86
2021/06/18 12:09:17;;;;;;;9.65;8.65;;;26.60;99.90;;;;;;4981173;28;20050;-85
2021/06/18 12:11:53;;;;;;;12.57;9.27;;;26.60;99.90;;;;;;5012894;28;20038;-87
2021/06/18 12:14:20;;;;;;;10.52;9.18;;;26.40;99.90;;;;;;5028826;28;20034;-82
2021/06/18 12:16:50;;;;;;;10.30;9.23;;;26.40;99.90;;;;;;4993754;28;20530;-84
2021/06/18 12:19:25;;;;;;;11.30;9.68;;;26.40;99.90;;;;;;5010441;28;20503;-84
2021/06/18 12:22:04;;;;;;;11.95;8.45;;;26.60;99.90;;;;;;4998276;28;20130;-81
2021/06/18 12:24:34;;;;;;;9.60;7.90;;;26.80;99.90;;;;;;5009817;28;20046;-82
2021/06/18 12:27:03;;;;;;;8.50;7.50;;;27.20;99.90;;;;;;4992980;28;20035;-80
2021/06/18 12:29:30;;;;;;;10.68;8.70;;;27.40;99.90;;;;;;5005344;28;20038;-78
2021/06/18 12:31:59;;;;;;;9.85;8.85;;;27.30;99.90;;;;;;4981013;28;20479;-82
2021/06/18 12:34:28;;;;;;;9.85;8.82;;;27.20;99.90;;;;;;4974787;28;20054;-80
2021/06/18 12:37:06;;;;;;;10.05;8.35;;;27.10;99.90;;;;;;5003996;28;20081;-83
2021/06/18 12:39:56;;;;;;;8.40;7.60;;;27.30;99.90;;;;;;4992202;28;20051;-84
2021/06/18 12:42:29;;;;;;;9.32;7.47;;;27.50;99.90;;;;;;4993017;28;20081;-84
2021/06/18 12:45:08;;;;;;;9.02;7.40;;;27.50;99.90;;;;;;4973256;29;20035;-82
2021/06/18 12:47:36;;;;;;;6.72;5.93;;;27.60;99.90;;;;;;4972910;29;20042;-85
2021/06/18 12:50:23;;;;;;;7.15;5.93;;;27.70;99.90;;;;;;4957270;29;20043;-84